createdAt,value
2023-04-14T00:01:06.718Z,10.04
2023-04-14T00:03:34.599Z,10.17
2023-04-14T00:06:02.479Z,10.11
2023-04-14T00:08:30.592Z,10.08
2023-04-14T00:10:58.694Z,10.11
2023-04-14T00:13:26.540Z,10.07
2023-04-14T00:15:56.438Z,10.02
2023-04-14T00:18:26.041Z,9.93
2023-04-14T00:20:55.710Z,9.95
2023-04-14T00:23:23.532Z,9.84
2023-04-14T00:25:53.914Z,9.76
2023-04-14T00:28:23.781Z,9.81
2023-04-14T00:30:51.763Z,9.82
2023-04-14T00:33:19.890Z,9.86
2023-04-14T00:35:49.834Z,9.80
2023-04-14T00:38:17.765Z,9.94
2023-04-14T00:40:47.286Z,9.95
2023-04-14T00:43:19.395Z,9.85
2023-04-14T00:45:50.165Z,9.67
2023-04-14T00:48:19.938Z,9.73
2023-04-14T00:50:50.765Z,9.70
2023-04-14T00:53:19.981Z,9.54
2023-04-14T00:55:48.494Z,9.50
2023-04-14T00:58:17.014Z,9.54
2023-04-14T01:00:52.350Z,9.45
2023-04-14T01:03:20.367Z,9.50
2023-04-14T01:05:49.640Z,9.58
2023-04-14T01:08:19.013Z,9.54
2023-04-14T01:10:50.819Z,9.64
2023-04-14T01:13:33.494Z,9.66
2023-04-14T01:16:05.614Z,9.61
2023-04-14T01:18:42.262Z,9.58
2023-04-14T01:21:18.450Z,9.44
2023-04-14T01:24:10.258Z,9.59
2023-04-14T01:26:41.295Z,9.54
2023-04-14T01:29:36.079Z,9.70
2023-04-14T01:32:10.934Z,9.66
2023-04-14T01:34:45.869Z,9.68
2023-04-14T01:37:17.815Z,9.67
2023-04-14T01:39:51.198Z,9.70
2023-04-14T01:42:21.278Z,10.05
2023-04-14T01:44:53.608Z,9.73
2023-04-14T01:47:24.447Z,9.79
2023-04-14T01:49:54.083Z,9.64
2023-04-14T01:52:23.355Z,9.75
2023-04-14T01:54:54.930Z,9.80
2023-04-14T01:57:26.674Z,9.82
2023-04-14T01:59:58.035Z,9.88
2023-04-14T02:02:28.858Z,9.97
2023-04-14T02:04:58.899Z,9.99
2023-04-14T02:07:28.334Z,10.05
2023-04-14T02:09:58.445Z,10.08
2023-04-14T02:12:28.367Z,10.10
2023-04-14T02:14:56.614Z,10.09
2023-04-14T02:17:27.234Z,10.09
2023-04-14T02:19:56.917Z,10.18
2023-04-14T02:22:25.274Z,10.19
2023-04-14T02:24:55.746Z,10.22
2023-04-14T02:27:31.809Z,10.26
2023-04-14T02:30:06.398Z,10.31
2023-04-14T02:32:37.063Z,10.38
2023-04-14T02:35:13.753Z,10.40
2023-04-14T02:37:45.038Z,10.34
2023-04-14T02:40:17.227Z,10.34
2023-04-14T02:42:49.190Z,10.32
2023-04-14T02:45:23.435Z,10.41
2023-04-14T02:47:58.372Z,10.41
2023-04-14T02:50:29.595Z,10.42
2023-04-14T02:53:05.705Z,10.46
2023-04-14T02:55:38.584Z,10.41
2023-04-14T02:58:07.003Z,10.31
2023-04-14T03:00:41.429Z,10.28
2023-04-14T03:03:13.030Z,10.24
2023-04-14T03:05:42.101Z,10.24
2023-04-14T03:08:13.277Z,10.08
2023-04-14T03:10:46.615Z,10.11
2023-04-14T03:13:17.834Z,10.14
2023-04-14T03:15:46.998Z,10.20
2023-04-14T03:18:19.074Z,10.27
2023-04-14T03:20:48.642Z,10.34
2023-04-14T03:23:19.557Z,10.29
2023-04-14T03:25:57.206Z,10.36
2023-04-14T03:28:31.738Z,10.38
2023-04-14T03:31:05.202Z,10.44
2023-04-14T03:33:46.939Z,10.45
2023-04-14T03:36:18.420Z,10.43
2023-04-14T03:38:49.937Z,10.42
2023-04-14T03:41:22.063Z,10.43
2023-04-14T03:43:54.676Z,10.45
2023-04-14T03:46:24.206Z,10.46
2023-04-14T03:48:56.649Z,10.48
2023-04-14T03:51:27.917Z,10.41
2023-04-14T03:53:58.107Z,10.39
2023-04-14T03:56:27.749Z,10.38
2023-04-14T03:58:58.129Z,10.33
2023-04-14T04:01:28.002Z,10.25
2023-04-14T04:03:58.969Z,10.18
2023-04-14T04:06:27.474Z,10.20
2023-04-14T04:08:59.071Z,10.19
2023-04-14T04:11:32.980Z,10.19
2023-04-14T04:14:02.007Z,10.21
2023-04-14T04:16:31.652Z,10.23
2023-04-14T04:19:06.156Z,10.24
2023-04-14T04:21:36.530Z,10.27
2023-04-14T04:24:07.619Z,10.27
2023-04-14T04:26:36.611Z,10.24
2023-04-14T04:29:05.639Z,10.21
2023-04-14T04:31:35.399Z,10.25
2023-04-14T04:34:07.003Z,10.23
2023-04-14T04:36:39.448Z,10.23
2023-04-14T04:39:07.612Z,10.21
2023-04-14T04:41:40.203Z,10.12
2023-04-14T04:44:08.330Z,10.11
2023-04-14T04:46:48.426Z,10.13
2023-04-14T04:49:19.250Z,10.11
2023-04-14T04:51:48.568Z,10.11
2023-04-14T04:54:20.335Z,10.16
2023-04-14T04:56:48.387Z,10.16
2023-04-14T04:59:16.734Z,10.14
2023-04-14T05:01:44.675Z,10.11
2023-04-14T05:04:12.784Z,10.11
2023-04-14T05:06:42.103Z,10.13
2023-04-14T05:09:10.098Z,10.18
2023-04-14T05:11:37.896Z,10.16
2023-04-14T05:14:05.655Z,10.20
2023-04-14T05:16:33.870Z,10.21
2023-04-14T05:19:01.959Z,10.29
2023-04-14T05:21:30.718Z,10.29
2023-04-14T05:24:00.434Z,10.32
2023-04-14T05:26:49.186Z,10.39
2023-04-14T05:29:16.087Z,10.39
2023-04-14T05:31:43.976Z,10.38
2023-04-14T05:34:11.837Z,10.41
2023-04-14T05:36:39.645Z,10.39
2023-04-14T05:39:08.764Z,10.35
2023-04-14T05:41:36.501Z,10.37
2023-04-14T05:44:04.719Z,10.40
2023-04-14T05:46:33.057Z,10.41
2023-04-14T05:49:01.844Z,10.45
2023-04-14T05:51:30.356Z,10.51
2023-04-14T05:53:58.428Z,10.52
2023-04-14T05:56:28.298Z,10.55
2023-04-14T05:58:56.487Z,10.58
2023-04-14T06:01:24.336Z,10.59
2023-04-14T06:03:52.391Z,10.64
2023-04-14T06:06:20.813Z,10.66
2023-04-14T06:08:48.783Z,10.67
2023-04-14T06:11:17.161Z,10.69
2023-04-14T06:13:46.642Z,10.69
2023-04-14T06:16:14.574Z,10.73
2023-04-14T06:18:42.659Z,10.76
2023-04-14T06:21:11.148Z,10.76
2023-04-14T06:23:39.315Z,10.74
2023-04-14T06:26:07.387Z,10.74
2023-04-14T06:28:35.282Z,10.73
2023-04-14T06:31:04.722Z,10.79
2023-04-14T06:33:33.185Z,10.86
2023-04-14T06:36:01.153Z,10.91
2023-04-14T06:38:29.113Z,10.94
2023-04-14T06:40:57.306Z,10.95
2023-04-14T06:43:25.363Z,10.95
2023-04-14T06:45:53.157Z,10.96
2023-04-14T06:48:22.421Z,10.98
2023-04-14T06:50:55.567Z,11.04
2023-04-14T06:53:23.609Z,11.01
2023-04-14T06:55:59.365Z,11.07
2023-04-14T06:58:28.507Z,11.09
2023-04-14T07:00:57.456Z,11.08
2023-04-14T07:03:27.909Z,11.06
2023-04-14T07:05:56.406Z,11.08
2023-04-14T07:08:24.620Z,10.97
2023-04-14T07:11:00.897Z,11.01
2023-04-14T07:13:29.059Z,10.84
2023-04-14T07:15:57.116Z,10.89
2023-04-14T07:18:26.456Z,11.05
2023-04-14T07:20:55.455Z,11.12
2023-04-14T07:23:23.668Z,11.13
2023-04-14T07:25:52.874Z,11.28
2023-04-14T07:28:21.012Z,11.30
2023-04-14T07:30:49.742Z,11.30
2023-04-14T07:33:19.198Z,11.22
2023-04-14T07:36:01.302Z,11.35
2023-04-14T07:38:31.520Z,11.30
2023-04-14T07:40:59.456Z,11.35
2023-04-14T07:43:27.490Z,11.46
2023-04-14T07:45:55.709Z,11.44
2023-04-14T07:48:23.594Z,11.56
2023-04-14T07:50:53.404Z,11.70
2023-04-14T07:53:22.039Z,11.73
2023-04-14T07:55:50.527Z,11.77
2023-04-14T07:58:19.005Z,11.75
2023-04-14T08:00:47.861Z,11.80
2023-04-14T08:03:17.129Z,11.74
2023-04-14T08:05:46.244Z,11.83
2023-04-14T08:08:16.026Z,11.73
2023-04-14T08:10:44.453Z,11.65
2023-04-14T08:13:12.777Z,11.64
2023-04-14T08:15:41.466Z,11.67
2023-04-14T08:18:10.787Z,11.78
2023-04-14T08:20:39.322Z,11.94
2023-04-14T08:23:08.008Z,11.99
2023-04-14T08:25:37.869Z,12.10
2023-04-14T08:28:06.265Z,12.01
2023-04-14T08:30:34.766Z,11.98
2023-04-14T08:33:02.829Z,11.92
2023-04-14T08:35:39.767Z,11.92
2023-04-14T08:38:10.170Z,11.98
2023-04-14T08:40:42.257Z,12.10
2023-04-14T08:43:13.725Z,12.13
2023-04-14T08:45:45.097Z,12.26
2023-04-14T08:48:16.132Z,12.32
2023-04-14T08:50:56.642Z,12.43
2023-04-14T08:53:27.481Z,12.58
2023-04-14T08:55:58.740Z,12.65
2023-04-14T08:58:26.925Z,12.70
2023-04-14T09:00:55.991Z,12.75
2023-04-14T09:03:25.895Z,12.82
2023-04-14T09:05:55.619Z,12.94
2023-04-14T09:08:24.629Z,12.95
2023-04-14T09:10:53.084Z,13.01
2023-04-14T09:13:28.691Z,13.14
2023-04-14T09:15:58.198Z,13.23
2023-04-14T09:18:28.251Z,13.20
2023-04-14T09:21:29.462Z,13.12
2023-04-14T09:23:48.253Z,13.26
2023-04-14T09:26:17.364Z,13.32
2023-04-14T09:28:47.568Z,13.40
2023-04-14T09:31:16.707Z,13.48
2023-04-14T09:33:48.042Z,13.40
2023-04-14T09:36:20.755Z,13.47
2023-04-14T09:38:49.752Z,13.45
2023-04-14T09:41:19.246Z,13.45
2023-04-14T09:43:49.045Z,13.48
2023-04-14T09:46:18.004Z,13.55
2023-04-14T09:48:54.108Z,13.54
2023-04-14T09:51:29.059Z,13.45
2023-04-14T09:54:03.050Z,13.58
2023-04-14T09:56:31.717Z,13.69
2023-04-14T09:59:03.755Z,13.69
2023-04-14T10:01:34.698Z,13.76
2023-04-14T10:04:03.818Z,13.83
2023-04-14T10:06:32.572Z,13.99
2023-04-14T10:09:00.977Z,13.96
2023-04-14T10:11:30.696Z,13.94
2023-04-14T10:14:01.650Z,13.90
2023-04-14T10:16:29.575Z,13.93
2023-04-14T10:18:58.988Z,13.94
2023-04-14T10:21:28.462Z,13.90
2023-04-14T10:23:58.133Z,14.01
2023-04-14T10:26:26.851Z,14.08
2023-04-14T10:28:56.917Z,14.14
2023-04-14T10:31:30.454Z,14.23
2023-04-14T10:33:59.005Z,14.34
2023-04-14T10:36:29.023Z,14.33
2023-04-14T10:39:02.322Z,14.43
2023-04-14T10:41:46.732Z,14.52
2023-04-14T10:44:25.675Z,14.46
2023-04-14T10:46:56.929Z,14.42
2023-04-14T10:49:30.377Z,14.44
2023-04-14T10:52:00.516Z,14.48
2023-04-14T10:54:28.456Z,14.51
2023-04-14T10:57:15.644Z,14.57
2023-04-14T10:59:44.619Z,14.64
2023-04-14T11:02:28.159Z,14.77
2023-04-14T11:05:04.982Z,14.84
2023-04-14T11:07:40.423Z,14.91
2023-04-14T11:10:28.677Z,15.05
2023-04-14T11:12:58.558Z,15.09
2023-04-14T11:15:44.597Z,15.21
2023-04-14T11:18:15.846Z,15.29
2023-04-14T11:20:44.126Z,15.38
2023-04-14T11:23:14.479Z,15.46
2023-04-14T11:25:42.586Z,15.53
2023-04-14T11:28:10.508Z,15.63
2023-04-14T11:30:41.711Z,15.71
2023-04-14T11:33:09.663Z,15.79
2023-04-14T11:35:39.133Z,15.75
2023-04-14T11:38:10.621Z,15.72
2023-04-14T11:40:38.894Z,15.74
2023-04-14T11:43:08.058Z,15.57
2023-04-14T11:45:36.359Z,15.70
2023-04-14T11:48:06.243Z,15.64
2023-04-14T11:50:38.738Z,15.71
2023-04-14T11:53:10.436Z,15.70
2023-04-14T11:55:38.677Z,15.64
2023-04-14T11:58:06.703Z,15.47
2023-04-14T12:00:34.957Z,15.40
2023-04-14T12:03:04.104Z,15.37
2023-04-14T12:05:34.399Z,15.52
2023-04-14T12:08:07.705Z,15.53
2023-04-14T12:10:38.210Z,15.56
2023-04-14T12:13:07.126Z,15.53
2023-04-14T12:15:37.777Z,15.60
2023-04-14T12:18:08.586Z,15.63
2023-04-14T12:20:43.488Z,15.59
2023-04-14T12:23:11.358Z,15.67
2023-04-14T12:25:41.105Z,15.75
2023-04-14T12:28:09.285Z,15.78
2023-04-14T12:30:38.486Z,15.73
2023-04-14T12:33:12.046Z,15.89
2023-04-14T12:35:41.326Z,15.95
2023-04-14T12:38:13.745Z,16.21
2023-04-14T12:40:46.539Z,16.34
2023-04-14T12:43:14.946Z,16.36
2023-04-14T12:45:44.638Z,16.05
2023-04-14T12:48:13.590Z,15.97
2023-04-14T12:50:41.771Z,15.82
2023-04-14T12:53:26.122Z,16.07
2023-04-14T12:56:10.272Z,16.37
2023-04-14T12:58:39.165Z,16.50
2023-04-14T13:01:07.999Z,16.72
2023-04-14T13:03:40.693Z,16.74
2023-04-14T13:06:09.387Z,16.71
2023-04-14T13:08:37.447Z,16.63
2023-04-14T13:11:06.192Z,16.67
2023-04-14T13:13:35.340Z,16.92
2023-04-14T13:16:12.861Z,17.16
2023-04-14T13:18:43.977Z,17.34
2023-04-14T13:21:13.381Z,17.57
2023-04-14T13:23:41.927Z,17.72
2023-04-14T13:26:09.999Z,17.81
2023-04-14T13:28:39.485Z,17.84
2023-04-14T13:31:07.640Z,17.98
2023-04-14T13:33:35.602Z,18.05
2023-04-14T13:36:04.015Z,18.18
2023-04-14T13:38:32.089Z,18.30
2023-04-14T13:41:00.312Z,18.34
2023-04-14T13:43:29.017Z,18.42
2023-04-14T13:45:59.203Z,18.34
2023-04-14T13:48:27.219Z,18.47
2023-04-14T13:50:55.824Z,18.28
2023-04-14T13:53:24.025Z,18.26
2023-04-14T13:55:52.059Z,18.11
2023-04-14T13:58:20.281Z,17.99
2023-04-14T14:00:48.403Z,17.88
2023-04-14T14:03:17.999Z,17.84
2023-04-14T14:05:46.416Z,18.00
2023-04-14T14:08:15.859Z,18.30
2023-04-14T14:10:44.246Z,18.57
2023-04-14T14:13:12.185Z,18.67
2023-04-14T14:15:40.457Z,18.87
2023-04-14T14:18:08.907Z,19.09
2023-04-14T14:20:38.941Z,19.16
2023-04-14T14:23:06.932Z,19.33
2023-04-14T14:25:34.914Z,19.27
2023-04-14T14:28:02.786Z,19.40
2023-04-14T14:30:31.224Z,19.35
2023-04-14T14:32:59.326Z,19.00
2023-04-14T14:35:27.111Z,18.80
2023-04-14T14:37:58.043Z,18.43
2023-04-14T14:40:27.401Z,18.16
2023-04-14T14:42:55.623Z,17.96
2023-04-14T14:45:30.319Z,17.96
2023-04-14T14:47:59.957Z,18.19
2023-04-14T14:50:27.835Z,18.32
2023-04-14T14:52:58.049Z,18.55
2023-04-14T14:55:27.259Z,18.53
2023-04-14T14:57:55.520Z,18.83
2023-04-14T15:00:23.239Z,18.98
2023-04-14T15:02:51.311Z,19.20
2023-04-14T15:05:19.380Z,19.32
2023-04-14T15:07:47.579Z,19.21
2023-04-14T15:10:17.237Z,19.32
2023-04-14T15:12:45.140Z,19.27
2023-04-14T15:15:13.157Z,19.34
2023-04-14T15:17:41.209Z,19.59
2023-04-14T15:20:10.576Z,19.63
2023-04-14T15:22:38.548Z,19.69
2023-04-14T15:25:09.199Z,19.67
2023-04-14T15:27:38.645Z,19.40
2023-04-14T15:30:08.274Z,19.14
2023-04-14T15:32:36.117Z,19.06
2023-04-14T15:35:04.325Z,18.93
2023-04-14T15:37:32.758Z,18.90
2023-04-14T15:40:01.644Z,19.10
2023-04-14T15:42:29.616Z,19.14
2023-04-14T15:44:58.694Z,19.04
2023-04-14T15:47:28.121Z,18.98
2023-04-14T15:50:09.563Z,18.85
2023-04-14T15:52:39.453Z,18.78
2023-04-14T15:55:08.990Z,18.69
2023-04-14T15:57:37.167Z,18.60
2023-04-14T16:00:08.860Z,18.56
2023-04-14T16:02:43.124Z,18.49
2023-04-14T16:05:11.856Z,18.41
2023-04-14T16:07:40.304Z,18.31
2023-04-14T16:10:09.240Z,18.15
2023-04-14T16:12:37.809Z,18.06
2023-04-14T16:15:09.713Z,17.98
2023-04-14T16:17:37.587Z,17.87
2023-04-14T16:20:06.811Z,17.86
2023-04-14T16:22:34.799Z,17.78
2023-04-14T16:25:04.417Z,17.75
2023-04-14T16:27:32.181Z,17.75
2023-04-14T16:30:00.209Z,17.74
2023-04-14T16:32:30.500Z,17.73
2023-04-14T16:34:58.500Z,17.62
2023-04-14T16:37:27.517Z,17.67
2023-04-14T16:39:56.162Z,17.58
2023-04-14T16:42:25.156Z,17.52
2023-04-14T16:44:53.608Z,17.33
2023-04-14T16:47:22.200Z,17.39
2023-04-14T16:49:51.792Z,17.36
2023-04-14T16:52:20.869Z,17.30
2023-04-14T16:54:48.715Z,17.23
2023-04-14T16:57:16.813Z,17.21
2023-04-14T16:59:46.231Z,17.18
2023-04-14T17:02:14.157Z,17.19
2023-04-14T17:04:42.155Z,17.17
2023-04-14T17:07:11.680Z,17.14
2023-04-14T17:09:39.507Z,17.14
2023-04-14T17:12:07.497Z,17.15
2023-04-14T17:14:35.679Z,17.11
2023-04-14T17:17:03.777Z,17.12
2023-04-14T17:19:32.243Z,17.09
2023-04-14T17:22:00.717Z,17.15
2023-04-14T17:24:30.557Z,17.17
2023-04-14T17:26:58.549Z,17.19
2023-04-14T17:29:27.232Z,17.25
2023-04-14T17:31:55.935Z,17.26
2023-04-14T17:34:23.936Z,17.26
2023-04-14T17:36:52.140Z,17.27
2023-04-14T17:39:26.676Z,17.27
2023-04-14T17:41:58.053Z,17.27
2023-04-14T17:44:31.868Z,17.24
2023-04-14T17:47:01.029Z,17.24
2023-04-14T17:49:28.989Z,17.20
2023-04-14T17:51:57.319Z,17.19
2023-04-14T17:54:25.270Z,17.19
2023-04-14T17:56:53.786Z,17.19
2023-04-14T17:59:23.116Z,17.18
2023-04-14T18:01:51.298Z,17.15
2023-04-14T18:04:19.099Z,17.05
2023-04-14T18:06:46.985Z,16.84
2023-04-14T18:09:14.743Z,16.86
2023-04-14T18:11:42.870Z,16.71
2023-04-14T18:14:10.649Z,16.69
2023-04-14T18:16:40.536Z,16.68
2023-04-14T18:19:09.161Z,16.66
2023-04-14T18:21:37.168Z,16.68
2023-04-14T18:26:36.662Z,16.62
2023-04-14T18:29:04.920Z,16.53
2023-04-14T18:31:32.887Z,16.42
2023-04-14T18:34:05.322Z,16.41
2023-04-14T18:36:33.718Z,16.42
2023-04-14T18:39:02.278Z,16.45
2023-04-14T18:41:30.438Z,16.45
2023-04-14T18:43:58.701Z,16.42
2023-04-14T18:46:27.504Z,16.40
2023-04-14T18:48:55.454Z,16.40
2023-04-14T18:51:25.905Z,16.37
2023-04-14T18:53:53.756Z,16.33
2023-04-14T18:56:21.604Z,16.32
2023-04-14T18:58:49.472Z,16.28
2023-04-14T19:01:18.768Z,16.29
2023-04-14T19:03:47.329Z,16.27
2023-04-14T19:06:15.670Z,16.28
2023-04-14T19:08:44.873Z,16.28
2023-04-14T19:11:12.641Z,16.25
2023-04-14T19:13:41.806Z,16.21
2023-04-14T19:16:11.717Z,16.13
2023-04-14T19:18:39.687Z,16.10
2023-04-14T19:21:08.970Z,16.02
2023-04-14T19:23:38.224Z,15.96
2023-04-14T19:26:08.384Z,15.86
2023-04-14T19:28:39.909Z,15.77
2023-04-14T19:31:07.889Z,15.72
2023-04-14T19:33:35.748Z,15.59
2023-04-14T19:36:03.630Z,15.56
2023-04-14T19:38:31.895Z,15.52
2023-04-14T19:40:59.802Z,15.52
2023-04-14T19:43:28.952Z,15.45
2023-04-14T19:45:57.964Z,15.43
2023-04-14T19:48:25.874Z,15.42
2023-04-14T19:50:54.801Z,15.29
2023-04-14T19:53:23.415Z,15.24
2023-04-14T19:55:52.008Z,15.19
2023-04-14T19:58:21.695Z,15.17
2023-04-14T20:00:52.748Z,15.14
2023-04-14T20:03:21.294Z,15.07
2023-04-14T20:05:51.761Z,15.05
2023-04-14T20:08:20.319Z,15.08
2023-04-14T20:10:51.168Z,15.07
2023-04-14T20:13:19.746Z,15.05
2023-04-14T20:15:49.121Z,15.08
2023-04-14T20:18:18.834Z,15.02
2023-04-14T20:20:48.810Z,15.00
2023-04-14T20:23:17.012Z,14.99
2023-04-14T20:25:45.881Z,15.01
2023-04-14T20:28:16.687Z,15.01
2023-04-14T20:30:45.162Z,14.72
2023-04-14T20:33:13.327Z,14.89
2023-04-14T20:35:43.443Z,14.87
2023-04-14T20:38:13.942Z,14.90
2023-04-14T20:40:43.653Z,14.89
2023-04-14T20:43:11.514Z,14.89
2023-04-14T20:45:39.588Z,14.86
2023-04-14T20:48:09.168Z,14.82
2023-04-14T20:50:37.296Z,14.86
2023-04-14T20:53:07.384Z,14.79
2023-04-14T20:55:36.622Z,14.80
2023-04-14T20:58:04.556Z,14.80
2023-04-14T21:00:34.359Z,14.82
2023-04-14T21:03:03.530Z,14.81
2023-04-14T21:05:31.596Z,14.82
2023-04-14T21:07:59.531Z,14.80
2023-04-14T21:10:28.876Z,14.79
2023-04-14T21:15:30.206Z,14.80
2023-04-14T21:15:56.080Z,14.81
2023-04-14T21:18:24.192Z,14.78
2023-04-14T21:20:52.031Z,14.78
2023-04-14T21:23:20.358Z,14.76
2023-04-14T21:25:50.091Z,14.76
2023-04-14T21:28:18.324Z,14.76
2023-04-14T21:30:46.339Z,14.76
2023-04-14T21:33:14.221Z,14.69
2023-04-14T21:35:42.240Z,14.67
2023-04-14T21:38:09.938Z,14.61
2023-04-14T21:40:38.843Z,14.66
2023-04-14T21:43:08.005Z,14.64
2023-04-14T21:45:36.190Z,14.60
2023-04-14T21:48:04.309Z,14.59
2023-04-14T21:50:33.315Z,14.57
2023-04-14T21:53:01.526Z,14.53
2023-04-14T21:55:29.272Z,14.50
2023-04-14T21:57:57.165Z,14.50
2023-04-14T22:00:27.882Z,14.53
2023-04-14T22:02:55.887Z,14.52
2023-04-14T22:05:24.232Z,14.48
2023-04-14T22:07:52.032Z,14.45
2023-04-14T22:10:20.669Z,14.43
2023-04-14T22:12:49.021Z,14.38
2023-04-14T22:15:16.993Z,14.40
2023-04-14T22:17:46.506Z,14.29
2023-04-14T22:20:14.658Z,14.32
2023-04-14T22:22:42.397Z,14.37
2023-04-14T22:25:11.693Z,14.35
2023-04-14T22:27:39.532Z,14.32
2023-04-14T22:30:09.541Z,14.30
2023-04-14T22:32:37.476Z,14.32
2023-04-14T22:35:07.549Z,14.32
2023-04-14T22:37:35.394Z,14.28
2023-04-14T22:40:03.487Z,14.29
2023-04-14T22:42:31.677Z,14.29
2023-04-14T22:44:59.659Z,14.27
2023-04-14T22:47:27.606Z,14.25
2023-04-14T22:49:55.544Z,14.26
2023-04-14T22:52:24.703Z,14.17
2023-04-14T22:54:52.751Z,14.14
2023-04-14T22:57:20.685Z,14.09
2023-04-14T22:59:48.442Z,14.10
2023-04-14T23:02:16.575Z,14.10
2023-04-14T23:04:45.091Z,13.96
2023-04-14T23:07:13.573Z,14.03
2023-04-14T23:09:42.950Z,14.04
2023-04-14T23:12:10.703Z,14.02
2023-04-14T23:14:38.613Z,14.02
2023-04-14T23:17:06.695Z,14.03
2023-04-14T23:19:35.837Z,13.94
2023-04-14T23:22:04.509Z,13.97
2023-04-14T23:24:32.297Z,13.97
2023-04-14T23:27:01.844Z,13.93
2023-04-14T23:29:29.754Z,13.95
2023-04-14T23:31:57.761Z,13.90
2023-04-14T23:34:25.934Z,13.89
2023-04-14T23:36:53.760Z,13.91
2023-04-14T23:39:21.552Z,13.91
2023-04-14T23:41:49.310Z,13.85
2023-04-14T23:44:18.458Z,13.82
2023-04-14T23:46:46.402Z,13.83
2023-04-14T23:49:23.184Z,13.81
2023-04-14T23:51:52.729Z,13.74
2023-04-14T23:54:20.461Z,13.80
2023-04-14T23:56:48.451Z,13.74
2023-04-14T23:59:16.461Z,13.58
